Aviation Digital Data Service (ADDS)

Output produced by METARs form (1432 UTC 25 October 2014)
found at http://aviationweather.gov/adds/metars/
 
KRWI 251225Z 2512/2612 00000KT 3SM BR SKC 
     FM251300 VRB05KT P6SM SKC